sensor_id;sensor_type;location;lat;lon;timestamp;P1;durP1;ratioP1;P2;durP2;ratioP2
73733;SDS011;62039;50.000;9.064;2022-08-11T00:01:57;1.97;;;1.60;;
73733;SDS011;62039;50.000;9.064;2022-08-11T00:04:25;1.90;;;1.50;;
73733;SDS011;62039;50.000;9.064;2022-08-11T00:07:00;3.53;;;1.60;;
73733;SDS011;62039;50.000;9.064;2022-08-11T00:09:30;1.57;;;1.47;;
73733;SDS011;62039;50.000;9.064;2022-08-11T00:12:05;1.67;;;1.40;;
73733;SDS011;62039;50.000;9.064;2022-08-11T00:14:39;1.50;;;1.40;;
73733;SDS011;62039;50.000;9.064;2022-08-11T00:17:09;1.30;;;1.20;;
73733;SDS011;62039;50.000;9.064;2022-08-11T00:19:38;1.93;;;1.50;;
73733;SDS011;62039;50.000;9.064;2022-08-11T00:22:26;1.93;;;1.27;;
73733;SDS011;62039;50.000;9.064;2022-08-11T00:24:54;1.40;;;1.30;;
73733;SDS011;62039;50.000;9.064;2022-08-11T00:27:31;2.10;;;1.20;;
73733;SDS011;62039;50.000;9.064;2022-08-11T00:30:00;1.50;;;1.40;;
73733;SDS011;62039;50.000;9.064;2022-08-11T00:32:27;1.33;;;1.23;;
73733;SDS011;62039;50.000;9.064;2022-08-11T00:34:55;1.17;;;1.10;;
73733;SDS011;62039;50.000;9.064;2022-08-11T00:37:44;1.13;;;1.03;;
73733;SDS011;62039;50.000;9.064;2022-08-11T00:40:14;1.20;;;1.10;;
73733;SDS011;62039;50.000;9.064;2022-08-11T00:42:48;1.27;;;1.17;;
73733;SDS011;62039;50.000;9.064;2022-08-11T00:45:26;1.40;;;1.30;;
73733;SDS011;62039;50.000;9.064;2022-08-11T00:48:00;1.57;;;1.47;;
73733;SDS011;62039;50.000;9.064;2022-08-11T00:50:35;1.40;;;1.30;;
73733;SDS011;62039;50.000;9.064;2022-08-11T00:53:23;1.30;;;1.20;;
73733;SDS011;62039;50.000;9.064;2022-08-11T00:56:15;1.60;;;1.50;;
73733;SDS011;62039;50.000;9.064;2022-08-11T00:58:58;1.60;;;1.20;;
73733;SDS011;62039;50.000;9.064;2022-08-11T01:02:11;1.50;;;1.40;;
73733;SDS011;62039;50.000;9.064;2022-08-11T01:08:13;1.70;;;1.40;;
73733;SDS011;62039;50.000;9.064;2022-08-11T01:11:01;1.17;;;1.00;;
73733;SDS011;62039;50.000;9.064;2022-08-11T01:17:04;2.13;;;1.30;;
73733;SDS011;62039;50.000;9.064;2022-08-11T01:20:06;1.33;;;1.23;;
73733;SDS011;62039;50.000;9.064;2022-08-11T01:23:13;1.40;;;1.30;;
73733;SDS011;62039;50.000;9.064;2022-08-11T01:32:26;1.70;;;1.23;;
73733;SDS011;62039;50.000;9.064;2022-08-11T01:35:29;2.30;;;1.30;;
73733;SDS011;62039;50.000;9.064;2022-08-11T01:38:26;2.30;;;1.40;;
73733;SDS011;62039;50.000;9.064;2022-08-11T01:41:21;1.30;;;1.20;;
73733;SDS011;62039;50.000;9.064;2022-08-11T01:44:03;1.93;;;1.50;;
73733;SDS011;62039;50.000;9.064;2022-08-11T01:46:44;1.30;;;1.20;;
73733;SDS011;62039;50.000;9.064;2022-08-11T01:49:14;1.67;;;1.40;;
73733;SDS011;62039;50.000;9.064;2022-08-11T01:52:12;1.50;;;1.40;;
73733;SDS011;62039;50.000;9.064;2022-08-11T01:54:58;1.40;;;1.30;;
73733;SDS011;62039;50.000;9.064;2022-08-11T01:57:41;1.73;;;1.50;;
73733;SDS011;62039;50.000;9.064;2022-08-11T02:00:13;1.50;;;1.40;;
73733;SDS011;62039;50.000;9.064;2022-08-11T02:02:45;1.47;;;1.33;;
73733;SDS011;62039;50.000;9.064;2022-08-11T02:08:22;1.53;;;1.43;;
73733;SDS011;62039;50.000;9.064;2022-08-11T02:11:04;1.40;;;1.30;;
73733;SDS011;62039;50.000;9.064;2022-08-11T02:13:41;2.87;;;1.70;;
73733;SDS011;62039;50.000;9.064;2022-08-11T02:16:16;1.20;;;1.10;;
73733;SDS011;62039;50.000;9.064;2022-08-11T02:18:48;1.40;;;1.30;;
73733;SDS011;62039;50.000;9.064;2022-08-11T02:21:21;2.67;;;1.53;;
73733;SDS011;62039;50.000;9.064;2022-08-11T02:23:55;1.60;;;1.50;;
73733;SDS011;62039;50.000;9.064;2022-08-11T02:26:33;1.60;;;1.50;;
73733;SDS011;62039;50.000;9.064;2022-08-11T02:29:08;1.43;;;1.27;;
73733;SDS011;62039;50.000;9.064;2022-08-11T02:31:42;1.47;;;1.37;;
73733;SDS011;62039;50.000;9.064;2022-08-11T02:34:38;2.07;;;1.50;;
73733;SDS011;62039;50.000;9.064;2022-08-11T02:37:26;1.60;;;1.50;;
73733;SDS011;62039;50.000;9.064;2022-08-11T02:40:09;1.40;;;1.30;;
73733;SDS011;62039;50.000;9.064;2022-08-11T02:42:48;2.00;;;1.47;;
73733;SDS011;62039;50.000;9.064;2022-08-11T02:45:33;1.60;;;1.40;;
73733;SDS011;62039;50.000;9.064;2022-08-11T02:48:13;4.33;;;1.57;;
73733;SDS011;62039;50.000;9.064;2022-08-11T02:50:50;1.43;;;1.33;;
73733;SDS011;62039;50.000;9.064;2022-08-11T02:53:24;1.27;;;1.17;;
73733;SDS011;62039;50.000;9.064;2022-08-11T02:56:00;2.83;;;1.50;;
73733;SDS011;62039;50.000;9.064;2022-08-11T02:58:35;3.23;;;1.40;;
73733;SDS011;62039;50.000;9.064;2022-08-11T03:01:08;1.50;;;1.40;;
73733;SDS011;62039;50.000;9.064;2022-08-11T03:03:44;1.57;;;1.47;;
73733;SDS011;62039;50.000;9.064;2022-08-11T03:06:18;1.97;;;1.50;;
73733;SDS011;62039;50.000;9.064;2022-08-11T03:08:52;1.50;;;1.40;;
73733;SDS011;62039;50.000;9.064;2022-08-11T03:11:29;2.33;;;1.50;;
73733;SDS011;62039;50.000;9.064;2022-08-11T03:14:08;1.53;;;1.37;;
73733;SDS011;62039;50.000;9.064;2022-08-11T03:16:41;1.50;;;1.40;;
73733;SDS011;62039;50.000;9.064;2022-08-11T03:19:17;3.50;;;1.90;;
73733;SDS011;62039;50.000;9.064;2022-08-11T03:21:55;3.37;;;1.50;;
73733;SDS011;62039;50.000;9.064;2022-08-11T03:24:38;1.70;;;1.40;;
73733;SDS011;62039;50.000;9.064;2022-08-11T03:27:21;1.80;;;1.60;;
73733;SDS011;62039;50.000;9.064;2022-08-11T03:30:00;2.27;;;1.67;;
73733;SDS011;62039;50.000;9.064;2022-08-11T03:32:32;2.37;;;1.67;;
73733;SDS011;62039;50.000;9.064;2022-08-11T03:35:04;2.53;;;2.13;;
73733;SDS011;62039;50.000;9.064;2022-08-11T03:37:45;2.60;;;1.67;;
73733;SDS011;62039;50.000;9.064;2022-08-11T03:40:24;1.50;;;1.40;;
73733;SDS011;62039;50.000;9.064;2022-08-11T03:43:10;1.47;;;1.37;;
73733;SDS011;62039;50.000;9.064;2022-08-11T03:45:48;1.77;;;1.60;;
73733;SDS011;62039;50.000;9.064;2022-08-11T03:48:24;1.63;;;1.53;;
73733;SDS011;62039;50.000;9.064;2022-08-11T03:51:05;1.50;;;1.40;;
73733;SDS011;62039;50.000;9.064;2022-08-11T03:53:48;1.90;;;1.80;;
73733;SDS011;62039;50.000;9.064;2022-08-11T04:03:00;3.07;;;1.87;;
73733;SDS011;62039;50.000;9.064;2022-08-11T04:06:03;1.80;;;1.70;;
73733;SDS011;62039;50.000;9.064;2022-08-11T04:12:25;3.80;;;1.67;;
73733;SDS011;62039;50.000;9.064;2022-08-11T04:15:18;1.97;;;1.73;;
73733;SDS011;62039;50.000;9.064;2022-08-11T04:18:05;2.33;;;1.77;;
73733;SDS011;62039;50.000;9.064;2022-08-11T04:21:03;6.37;;;1.83;;
73733;SDS011;62039;50.000;9.064;2022-08-11T04:23:49;2.43;;;1.60;;
73733;SDS011;62039;50.000;9.064;2022-08-11T04:26:52;2.97;;;2.17;;
73733;SDS011;62039;50.000;9.064;2022-08-11T04:29:39;3.17;;;2.27;;
73733;SDS011;62039;50.000;9.064;2022-08-11T04:32:45;5.27;;;2.50;;
73733;SDS011;62039;50.000;9.064;2022-08-11T04:35:37;10.33;;;3.07;;
73733;SDS011;62039;50.000;9.064;2022-08-11T04:38:13;4.93;;;2.60;;
73733;SDS011;62039;50.000;9.064;2022-08-11T04:41:06;6.20;;;2.30;;
73733;SDS011;62039;50.000;9.064;2022-08-11T04:44:06;4.63;;;2.50;;
73733;SDS011;62039;50.000;9.064;2022-08-11T04:47:08;5.10;;;2.10;;
73733;SDS011;62039;50.000;9.064;2022-08-11T04:49:57;2.97;;;2.30;;
73733;SDS011;62039;50.000;9.064;2022-08-11T04:52:39;2.70;;;2.07;;
73733;SDS011;62039;50.000;9.064;2022-08-11T04:58:41;3.97;;;2.10;;
73733;SDS011;62039;50.000;9.064;2022-08-11T05:01:17;2.40;;;2.20;;
73733;SDS011;62039;50.000;9.064;2022-08-11T05:04:02;2.83;;;2.00;;
73733;SDS011;62039;50.000;9.064;2022-08-11T05:07:00;2.80;;;2.10;;
73733;SDS011;62039;50.000;9.064;2022-08-11T05:09:59;2.73;;;2.00;;
73733;SDS011;62039;50.000;9.064;2022-08-11T05:12:35;2.40;;;2.20;;
73733;SDS011;62039;50.000;9.064;2022-08-11T05:15:10;2.50;;;2.30;;
73733;SDS011;62039;50.000;9.064;2022-08-11T05:17:39;2.70;;;1.93;;
73733;SDS011;62039;50.000;9.064;2022-08-11T05:20:10;4.57;;;2.40;;
73733;SDS011;62039;50.000;9.064;2022-08-11T05:22:41;2.83;;;2.03;;
73733;SDS011;62039;50.000;9.064;2022-08-11T05:25:14;2.93;;;2.33;;
73733;SDS011;62039;50.000;9.064;2022-08-11T05:28:04;3.17;;;2.03;;
73733;SDS011;62039;50.000;9.064;2022-08-11T05:30:35;4.00;;;2.03;;
73733;SDS011;62039;50.000;9.064;2022-08-11T05:33:07;3.20;;;1.97;;
73733;SDS011;62039;50.000;9.064;2022-08-11T05:35:37;2.20;;;1.77;;
73733;SDS011;62039;50.000;9.064;2022-08-11T05:38:29;2.20;;;2.00;;
73733;SDS011;62039;50.000;9.064;2022-08-11T05:41:00;2.40;;;1.80;;
73733;SDS011;62039;50.000;9.064;2022-08-11T05:43:28;3.53;;;2.00;;
73733;SDS011;62039;50.000;9.064;2022-08-11T05:45:55;5.53;;;2.60;;
73733;SDS011;62039;50.000;9.064;2022-08-11T05:48:34;3.30;;;2.50;;
73733;SDS011;62039;50.000;9.064;2022-08-11T05:51:01;3.50;;;2.73;;
73733;SDS011;62039;50.000;9.064;2022-08-11T05:53:48;4.63;;;2.77;;
73733;SDS011;62039;50.000;9.064;2022-08-11T05:56:17;6.00;;;2.90;;
73733;SDS011;62039;50.000;9.064;2022-08-11T05:58:45;5.30;;;2.50;;
73733;SDS011;62039;50.000;9.064;2022-08-11T06:01:19;4.67;;;2.67;;
73733;SDS011;62039;50.000;9.064;2022-08-11T06:03:48;4.37;;;2.57;;
73733;SDS011;62039;50.000;9.064;2022-08-11T06:06:24;4.57;;;2.80;;
73733;SDS011;62039;50.000;9.064;2022-08-11T06:08:54;3.40;;;2.40;;
73733;SDS011;62039;50.000;9.064;2022-08-11T06:11:22;4.70;;;2.57;;
73733;SDS011;62039;50.000;9.064;2022-08-11T06:14:10;4.03;;;2.60;;
73733;SDS011;62039;50.000;9.064;2022-08-11T06:16:37;3.13;;;2.60;;
73733;SDS011;62039;50.000;9.064;2022-08-11T06:19:07;2.63;;;2.30;;
73733;SDS011;62039;50.000;9.064;2022-08-11T06:21:34;3.13;;;2.40;;
73733;SDS011;62039;50.000;9.064;2022-08-11T06:24:04;2.77;;;2.20;;
73733;SDS011;62039;50.000;9.064;2022-08-11T06:26:36;3.10;;;2.50;;
73733;SDS011;62039;50.000;9.064;2022-08-11T06:29:25;4.83;;;2.60;;
73733;SDS011;62039;50.000;9.064;2022-08-11T06:32:13;5.07;;;2.27;;
73733;SDS011;62039;50.000;9.064;2022-08-11T06:34:49;5.27;;;2.50;;
73733;SDS011;62039;50.000;9.064;2022-08-11T06:37:24;3.67;;;2.13;;
73733;SDS011;62039;50.000;9.064;2022-08-11T06:40:05;3.87;;;2.20;;
73733;SDS011;62039;50.000;9.064;2022-08-11T06:42:42;4.57;;;2.60;;
73733;SDS011;62039;50.000;9.064;2022-08-11T06:45:16;2.47;;;1.80;;
73733;SDS011;62039;50.000;9.064;2022-08-11T06:47:51;3.53;;;1.63;;
73733;SDS011;62039;50.000;9.064;2022-08-11T06:50:19;2.80;;;1.43;;
73733;SDS011;62039;50.000;9.064;2022-08-11T06:52:48;2.47;;;1.40;;
73733;SDS011;62039;50.000;9.064;2022-08-11T06:55:22;1.53;;;1.43;;
73733;SDS011;62039;50.000;9.064;2022-08-11T06:58:11;2.77;;;1.70;;
73733;SDS011;62039;50.000;9.064;2022-08-11T07:00:38;2.50;;;1.60;;
73733;SDS011;62039;50.000;9.064;2022-08-11T07:03:07;2.13;;;1.30;;
73733;SDS011;62039;50.000;9.064;2022-08-11T07:05:40;1.60;;;1.50;;
73733;SDS011;62039;50.000;9.064;2022-08-11T07:11:17;2.03;;;1.37;;
73733;SDS011;62039;50.000;9.064;2022-08-11T07:13:58;1.60;;;1.50;;
73733;SDS011;62039;50.000;9.064;2022-08-11T07:16:27;2.27;;;1.50;;
73733;SDS011;62039;50.000;9.064;2022-08-11T07:18:57;1.93;;;1.73;;
73733;SDS011;62039;50.000;9.064;2022-08-11T07:21:27;1.67;;;1.50;;
73733;SDS011;62039;50.000;9.064;2022-08-11T07:24:20;1.80;;;1.40;;
73733;SDS011;62039;50.000;9.064;2022-08-11T07:27:13;1.67;;;1.50;;
73733;SDS011;62039;50.000;9.064;2022-08-11T07:29:43;1.53;;;1.40;;
73733;SDS011;62039;50.000;9.064;2022-08-11T07:32:13;1.43;;;1.33;;
73733;SDS011;62039;50.000;9.064;2022-08-11T07:34:45;1.43;;;1.30;;
73733;SDS011;62039;50.000;9.064;2022-08-11T07:37:16;2.80;;;1.67;;
73733;SDS011;62039;50.000;9.064;2022-08-11T07:39:43;1.40;;;1.30;;
73733;SDS011;62039;50.000;9.064;2022-08-11T07:42:14;1.50;;;1.40;;
73733;SDS011;62039;50.000;9.064;2022-08-11T07:44:46;1.87;;;1.30;;
73733;SDS011;62039;50.000;9.064;2022-08-11T07:47:14;1.53;;;1.43;;
73733;SDS011;62039;50.000;9.064;2022-08-11T07:49:43;1.70;;;1.20;;
73733;SDS011;62039;50.000;9.064;2022-08-11T07:52:11;1.47;;;1.00;;
73733;SDS011;62039;50.000;9.064;2022-08-11T07:54:38;1.30;;;1.20;;
73733;SDS011;62039;50.000;9.064;2022-08-11T07:57:07;1.30;;;1.10;;
73733;SDS011;62039;50.000;9.064;2022-08-11T07:59:56;1.40;;;1.30;;
73733;SDS011;62039;50.000;9.064;2022-08-11T08:02:30;1.40;;;1.30;;
73733;SDS011;62039;50.000;9.064;2022-08-11T08:04:57;1.63;;;1.30;;
73733;SDS011;62039;50.000;9.064;2022-08-11T08:07:24;1.30;;;1.20;;
73733;SDS011;62039;50.000;9.064;2022-08-11T08:09:52;2.03;;;1.60;;
73733;SDS011;62039;50.000;9.064;2022-08-11T08:12:19;1.50;;;1.40;;
73733;SDS011;62039;50.000;9.064;2022-08-11T08:14:49;1.40;;;1.30;;
73733;SDS011;62039;50.000;9.064;2022-08-11T08:17:18;1.40;;;1.30;;
73733;SDS011;62039;50.000;9.064;2022-08-11T08:19:47;1.70;;;1.47;;
73733;SDS011;62039;50.000;9.064;2022-08-11T08:22:14;1.53;;;1.43;;
73733;SDS011;62039;50.000;9.064;2022-08-11T08:25:03;1.03;;;0.93;;
73733;SDS011;62039;50.000;9.064;2022-08-11T08:27:31;1.25;;;1.15;;
73733;SDS011;62039;50.000;9.064;2022-08-11T08:29:58;1.60;;;1.40;;
73733;SDS011;62039;50.000;9.064;2022-08-11T08:32:27;1.73;;;1.25;;
73733;SDS011;62039;50.000;9.064;2022-08-11T08:34:54;1.70;;;1.20;;
73733;SDS011;62039;50.000;9.064;2022-08-11T08:37:22;1.40;;;1.30;;
73733;SDS011;62039;50.000;9.064;2022-08-11T08:40:10;1.55;;;1.40;;
73733;SDS011;62039;50.000;9.064;2022-08-11T08:42:40;1.30;;;1.20;;
73733;SDS011;62039;50.000;9.064;2022-08-11T08:45:12;1.77;;;1.25;;
73733;SDS011;62039;50.000;9.064;2022-08-11T08:47:44;1.67;;;1.13;;
73733;SDS011;62039;50.000;9.064;2022-08-11T08:50:19;0.98;;;0.98;;
73733;SDS011;62039;50.000;9.064;2022-08-11T08:52:53;1.08;;;1.05;;
73733;SDS011;62039;50.000;9.064;2022-08-11T08:55:22;1.83;;;1.45;;
73733;SDS011;62039;50.000;9.064;2022-08-11T08:57:53;1.23;;;1.10;;
73733;SDS011;62039;50.000;9.064;2022-08-11T09:00:21;1.38;;;1.20;;
73733;SDS011;62039;50.000;9.064;2022-08-11T09:02:50;1.10;;;1.00;;
73733;SDS011;62039;50.000;9.064;2022-08-11T09:05:17;1.80;;;1.10;;
73733;SDS011;62039;50.000;9.064;2022-08-11T09:07:44;1.20;;;1.08;;
73733;SDS011;62039;50.000;9.064;2022-08-11T09:10:16;2.38;;;1.35;;
73733;SDS011;62039;50.000;9.064;2022-08-11T09:12:45;1.23;;;1.02;;
73733;SDS011;62039;50.000;9.064;2022-08-11T09:15:12;1.20;;;1.10;;
73733;SDS011;62039;50.000;9.064;2022-08-11T09:17:45;1.30;;;1.20;;
73733;SDS011;62039;50.000;9.064;2022-08-11T09:20:16;1.25;;;1.08;;
73733;SDS011;62039;50.000;9.064;2022-08-11T09:22:44;1.48;;;1.10;;
73733;SDS011;62039;50.000;9.064;2022-08-11T09:25:33;1.15;;;1.05;;
73733;SDS011;62039;50.000;9.064;2022-08-11T09:28:00;2.13;;;1.23;;
73733;SDS011;62039;50.000;9.064;2022-08-11T09:30:27;1.27;;;1.10;;
73733;SDS011;62039;50.000;9.064;2022-08-11T09:32:55;2.95;;;1.30;;
73733;SDS011;62039;50.000;9.064;2022-08-11T09:35:26;1.10;;;1.00;;
73733;SDS011;62039;50.000;9.064;2022-08-11T09:37:53;1.08;;;0.98;;
73733;SDS011;62039;50.000;9.064;2022-08-11T09:40:22;1.20;;;1.10;;
73733;SDS011;62039;50.000;9.064;2022-08-11T09:42:52;1.83;;;1.65;;
73733;SDS011;62039;50.000;9.064;2022-08-11T09:45:19;1.48;;;1.05;;
73733;SDS011;62039;50.000;9.064;2022-08-11T09:47:46;1.25;;;1.15;;
73733;SDS011;62039;50.000;9.064;2022-08-11T09:50:13;1.40;;;1.30;;
73733;SDS011;62039;50.000;9.064;2022-08-11T09:52:43;1.13;;;1.02;;
73733;SDS011;62039;50.000;9.064;2022-08-11T09:55:31;2.58;;;1.30;;
73733;SDS011;62039;50.000;9.064;2022-08-11T09:57:58;1.25;;;1.20;;
73733;SDS011;62039;50.000;9.064;2022-08-11T10:00:29;1.50;;;1.35;;
73733;SDS011;62039;50.000;9.064;2022-08-11T10:02:57;1.20;;;1.10;;
73733;SDS011;62039;50.000;9.064;2022-08-11T10:05:24;1.17;;;1.08;;
73733;SDS011;62039;50.000;9.064;2022-08-11T10:07:52;1.50;;;1.40;;
73733;SDS011;62039;50.000;9.064;2022-08-11T10:10:20;1.80;;;1.35;;
73733;SDS011;62039;50.000;9.064;2022-08-11T10:12:48;1.50;;;1.40;;
73733;SDS011;62039;50.000;9.064;2022-08-11T10:15:16;4.15;;;1.63;;
73733;SDS011;62039;50.000;9.064;2022-08-11T10:17:45;2.10;;;1.20;;
73733;SDS011;62039;50.000;9.064;2022-08-11T10:20:14;1.52;;;1.23;;
73733;SDS011;62039;50.000;9.064;2022-08-11T10:22:41;1.48;;;1.38;;
73733;SDS011;62039;50.000;9.064;2022-08-11T10:25:09;2.00;;;1.27;;
73733;SDS011;62039;50.000;9.064;2022-08-11T10:27:37;1.35;;;1.25;;
73733;SDS011;62039;50.000;9.064;2022-08-11T10:30:27;1.88;;;1.30;;
73733;SDS011;62039;50.000;9.064;2022-08-11T10:32:55;1.50;;;1.40;;
73733;SDS011;62039;50.000;9.064;2022-08-11T10:35:25;1.13;;;1.13;;
73733;SDS011;62039;50.000;9.064;2022-08-11T10:37:53;1.33;;;1.23;;
73733;SDS011;62039;50.000;9.064;2022-08-11T10:40:36;1.20;;;1.10;;
73733;SDS011;62039;50.000;9.064;2022-08-11T10:43:04;1.40;;;1.30;;
73733;SDS011;62039;50.000;9.064;2022-08-11T10:45:33;1.40;;;1.30;;
73733;SDS011;62039;50.000;9.064;2022-08-11T10:48:01;1.40;;;1.30;;
73733;SDS011;62039;50.000;9.064;2022-08-11T10:50:30;1.30;;;1.20;;
73733;SDS011;62039;50.000;9.064;2022-08-11T10:52:58;1.50;;;1.40;;
73733;SDS011;62039;50.000;9.064;2022-08-11T10:55:26;1.90;;;1.60;;
73733;SDS011;62039;50.000;9.064;2022-08-11T10:57:54;3.17;;;1.48;;
73733;SDS011;62039;50.000;9.064;2022-08-11T11:00:30;1.30;;;1.20;;
73733;SDS011;62039;50.000;9.064;2022-08-11T11:02:58;1.40;;;1.30;;
73733;SDS011;62039;50.000;9.064;2022-08-11T11:05:45;1.15;;;1.05;;
73733;SDS011;62039;50.000;9.064;2022-08-11T11:08:34;1.52;;;1.42;;
73733;SDS011;62039;50.000;9.064;2022-08-11T11:11:04;1.60;;;1.38;;
73733;SDS011;62039;50.000;9.064;2022-08-11T11:13:33;1.38;;;1.13;;
73733;SDS011;62039;50.000;9.064;2022-08-11T11:16:01;1.52;;;1.33;;
73733;SDS011;62039;50.000;9.064;2022-08-11T11:18:29;1.33;;;1.23;;
73733;SDS011;62039;50.000;9.064;2022-08-11T11:20:59;1.40;;;1.30;;
73733;SDS011;62039;50.000;9.064;2022-08-11T11:23:32;1.40;;;1.30;;
73733;SDS011;62039;50.000;9.064;2022-08-11T11:26:12;1.20;;;1.10;;
73733;SDS011;62039;50.000;9.064;2022-08-11T11:31:58;1.52;;;1.30;;
73733;SDS011;62039;50.000;9.064;2022-08-11T11:34:38;1.95;;;1.30;;
73733;SDS011;62039;50.000;9.064;2022-08-11T11:37:19;2.03;;;1.25;;
73733;SDS011;62039;50.000;9.064;2022-08-11T11:39:47;1.52;;;1.30;;
73733;SDS011;62039;50.000;9.064;2022-08-11T11:42:14;1.38;;;1.20;;
73733;SDS011;62039;50.000;9.064;2022-08-11T11:44:44;1.25;;;1.15;;
73733;SDS011;62039;50.000;9.064;2022-08-11T11:47:12;1.40;;;1.30;;
73733;SDS011;62039;50.000;9.064;2022-08-11T11:49:41;1.30;;;1.20;;
73733;SDS011;62039;50.000;9.064;2022-08-11T11:52:12;2.10;;;1.50;;
73733;SDS011;62039;50.000;9.064;2022-08-11T11:54:40;2.13;;;1.65;;
73733;SDS011;62039;50.000;9.064;2022-08-11T11:57:07;1.10;;;1.00;;
73733;SDS011;62039;50.000;9.064;2022-08-11T11:59:34;1.77;;;1.40;;
73733;SDS011;62039;50.000;9.064;2022-08-11T12:02:03;2.08;;;1.33;;
73733;SDS011;62039;50.000;9.064;2022-08-11T12:04:38;1.38;;;1.27;;
73733;SDS011;62039;50.000;9.064;2022-08-11T12:07:07;1.35;;;1.25;;
73733;SDS011;62039;50.000;9.064;2022-08-11T12:09:36;2.72;;;1.38;;
73733;SDS011;62039;50.000;9.064;2022-08-11T12:12:03;1.40;;;1.30;;
73733;SDS011;62039;50.000;9.064;2022-08-11T12:14:30;1.30;;;1.20;;
73733;SDS011;62039;50.000;9.064;2022-08-11T12:16:57;1.15;;;0.98;;
73733;SDS011;62039;50.000;9.064;2022-08-11T12:19:26;1.60;;;1.30;;
73733;SDS011;62039;50.000;9.064;2022-08-11T12:21:53;1.95;;;1.15;;
73733;SDS011;62039;50.000;9.064;2022-08-11T12:24:26;1.35;;;1.25;;
73733;SDS011;62039;50.000;9.064;2022-08-11T12:26:55;1.65;;;1.20;;
73733;SDS011;62039;50.000;9.064;2022-08-11T12:29:40;1.42;;;1.00;;
73733;SDS011;62039;50.000;9.064;2022-08-11T12:32:09;2.40;;;1.30;;
73733;SDS011;62039;50.000;9.064;2022-08-11T12:34:38;2.38;;;1.10;;
73733;SDS011;62039;50.000;9.064;2022-08-11T12:37:04;1.30;;;1.20;;
73733;SDS011;62039;50.000;9.064;2022-08-11T12:39:32;1.55;;;1.10;;
73733;SDS011;62039;50.000;9.064;2022-08-11T12:42:21;1.45;;;1.17;;
73733;SDS011;62039;50.000;9.064;2022-08-11T12:44:52;1.65;;;1.42;;
73733;SDS011;62039;50.000;9.064;2022-08-11T12:47:20;1.38;;;1.10;;
73733;SDS011;62039;50.000;9.064;2022-08-11T12:49:49;1.48;;;1.15;;
73733;SDS011;62039;50.000;9.064;2022-08-11T12:52:18;0.95;;;0.95;;
73733;SDS011;62039;50.000;9.064;2022-08-11T12:54:52;3.83;;;1.10;;
73733;SDS011;62039;50.000;9.064;2022-08-11T12:57:24;1.33;;;1.23;;
73733;SDS011;62039;50.000;9.064;2022-08-11T13:00:03;1.20;;;1.10;;
73733;SDS011;62039;50.000;9.064;2022-08-11T13:02:31;1.48;;;1.20;;
73733;SDS011;62039;50.000;9.064;2022-08-11T13:05:02;1.00;;;0.90;;
73733;SDS011;62039;50.000;9.064;2022-08-11T13:07:33;2.03;;;1.17;;
73733;SDS011;62039;50.000;9.064;2022-08-11T13:10:16;2.22;;;1.15;;
73733;SDS011;62039;50.000;9.064;2022-08-11T13:12:44;1.10;;;1.00;;
73733;SDS011;62039;50.000;9.064;2022-08-11T13:15:13;1.10;;;1.10;;
73733;SDS011;62039;50.000;9.064;2022-08-11T13:17:42;1.27;;;1.17;;
73733;SDS011;62039;50.000;9.064;2022-08-11T13:20:11;2.45;;;1.30;;
73733;SDS011;62039;50.000;9.064;2022-08-11T13:22:38;1.90;;;1.27;;
73733;SDS011;62039;50.000;9.064;2022-08-11T13:25:07;1.05;;;0.90;;
73733;SDS011;62039;50.000;9.064;2022-08-11T13:27:40;1.20;;;1.10;;
73733;SDS011;62039;50.000;9.064;2022-08-11T13:30:07;1.45;;;1.20;;
73733;SDS011;62039;50.000;9.064;2022-08-11T13:32:35;1.20;;;1.10;;
73733;SDS011;62039;50.000;9.064;2022-08-11T13:35:01;2.15;;;1.20;;
73733;SDS011;62039;50.000;9.064;2022-08-11T13:37:34;1.80;;;1.02;;
73733;SDS011;62039;50.000;9.064;2022-08-11T13:40:21;1.00;;;1.00;;
73733;SDS011;62039;50.000;9.064;2022-08-11T13:43:09;1.52;;;1.00;;
73733;SDS011;62039;50.000;9.064;2022-08-11T13:45:38;1.15;;;1.02;;
73733;SDS011;62039;50.000;9.064;2022-08-11T13:48:05;1.33;;;1.23;;
73733;SDS011;62039;50.000;9.064;2022-08-11T13:50:34;1.30;;;1.10;;
73733;SDS011;62039;50.000;9.064;2022-08-11T13:53:03;1.30;;;1.20;;
73733;SDS011;62039;50.000;9.064;2022-08-11T13:55:29;3.47;;;1.10;;
73733;SDS011;62039;50.000;9.064;2022-08-11T13:58:16;1.33;;;1.23;;
73733;SDS011;62039;50.000;9.064;2022-08-11T14:01:03;1.20;;;1.10;;
73733;SDS011;62039;50.000;9.064;2022-08-11T14:03:53;1.40;;;1.30;;
73733;SDS011;62039;50.000;9.064;2022-08-11T14:06:45;1.40;;;1.30;;
73733;SDS011;62039;50.000;9.064;2022-08-11T14:09:18;1.48;;;1.25;;
73733;SDS011;62039;50.000;9.064;2022-08-11T14:11:50;1.23;;;1.15;;
73733;SDS011;62039;50.000;9.064;2022-08-11T14:14:42;1.08;;;1.00;;
73733;SDS011;62039;50.000;9.064;2022-08-11T14:17:12;1.30;;;1.20;;
73733;SDS011;62039;50.000;9.064;2022-08-11T14:20:02;1.42;;;1.25;;
73733;SDS011;62039;50.000;9.064;2022-08-11T14:22:52;2.33;;;1.00;;
73733;SDS011;62039;50.000;9.064;2022-08-11T14:25:20;1.23;;;1.02;;
73733;SDS011;62039;50.000;9.064;2022-08-11T14:28:06;1.15;;;1.05;;
73733;SDS011;62039;50.000;9.064;2022-08-11T14:30:53;1.92;;;1.00;;
73733;SDS011;62039;50.000;9.064;2022-08-11T14:33:26;1.67;;;1.17;;
73733;SDS011;62039;50.000;9.064;2022-08-11T14:36:13;1.55;;;1.20;;
73733;SDS011;62039;50.000;9.064;2022-08-11T14:38:40;2.22;;;1.27;;
73733;SDS011;62039;50.000;9.064;2022-08-11T14:41:08;1.25;;;1.15;;
73733;SDS011;62039;50.000;9.064;2022-08-11T14:43:36;1.38;;;1.20;;
73733;SDS011;62039;50.000;9.064;2022-08-11T14:46:23;1.42;;;1.30;;
73733;SDS011;62039;50.000;9.064;2022-08-11T14:48:50;1.20;;;1.10;;
73733;SDS011;62039;50.000;9.064;2022-08-11T14:51:17;1.35;;;1.25;;
73733;SDS011;62039;50.000;9.064;2022-08-11T14:53:49;1.20;;;1.10;;
73733;SDS011;62039;50.000;9.064;2022-08-11T14:56:25;1.80;;;1.30;;
73733;SDS011;62039;50.000;9.064;2022-08-11T14:58:51;1.33;;;1.17;;
73733;SDS011;62039;50.000;9.064;2022-08-11T15:01:18;1.40;;;1.30;;
73733;SDS011;62039;50.000;9.064;2022-08-11T15:03:45;1.42;;;1.13;;
73733;SDS011;62039;50.000;9.064;2022-08-11T15:06:32;1.42;;;1.00;;
73733;SDS011;62039;50.000;9.064;2022-08-11T15:08:59;1.02;;;1.00;;
73733;SDS011;62039;50.000;9.064;2022-08-11T15:11:29;1.20;;;1.10;;
73733;SDS011;62039;50.000;9.064;2022-08-11T15:13:57;0.95;;;0.95;;
73733;SDS011;62039;50.000;9.064;2022-08-11T15:16:25;1.67;;;1.10;;
73733;SDS011;62039;50.000;9.064;2022-08-11T15:18:52;1.60;;;1.50;;
73733;SDS011;62039;50.000;9.064;2022-08-11T15:21:19;1.35;;;1.25;;
73733;SDS011;62039;50.000;9.064;2022-08-11T15:23:46;2.08;;;1.23;;
73733;SDS011;62039;50.000;9.064;2022-08-11T15:26:13;1.40;;;1.30;;
73733;SDS011;62039;50.000;9.064;2022-08-11T15:28:45;1.35;;;1.10;;
73733;SDS011;62039;50.000;9.064;2022-08-11T15:31:13;1.65;;;1.55;;
73733;SDS011;62039;50.000;9.064;2022-08-11T15:33:43;1.70;;;1.42;;
73733;SDS011;62039;50.000;9.064;2022-08-11T15:36:10;2.55;;;1.40;;
73733;SDS011;62039;50.000;9.064;2022-08-11T15:38:41;1.23;;;1.13;;
73733;SDS011;62039;50.000;9.064;2022-08-11T15:41:12;1.50;;;1.20;;
73733;SDS011;62039;50.000;9.064;2022-08-11T15:43:42;2.25;;;1.40;;
73733;SDS011;62039;50.000;9.064;2022-08-11T15:46:15;1.25;;;1.10;;
73733;SDS011;62039;50.000;9.064;2022-08-11T15:48:46;1.40;;;1.30;;
73733;SDS011;62039;50.000;9.064;2022-08-11T15:51:15;2.33;;;1.30;;
73733;SDS011;62039;50.000;9.064;2022-08-11T15:53:51;2.45;;;1.90;;
73733;SDS011;62039;50.000;9.064;2022-08-11T15:56:22;2.28;;;1.77;;
73733;SDS011;62039;50.000;9.064;2022-08-11T15:58:52;1.40;;;1.30;;
73733;SDS011;62039;50.000;9.064;2022-08-11T16:01:42;1.10;;;1.00;;
73733;SDS011;62039;50.000;9.064;2022-08-11T16:04:13;1.65;;;1.23;;
73733;SDS011;62039;50.000;9.064;2022-08-11T16:06:43;1.20;;;1.10;;
73733;SDS011;62039;50.000;9.064;2022-08-11T16:09:17;1.05;;;0.93;;
73733;SDS011;62039;50.000;9.064;2022-08-11T16:11:47;1.75;;;1.20;;